Time;durP1;ratioP1;P1;durP2;ratioP2;P2;SDS_P1;SDS_P2;PMS_P1;PMS_P2;Temp;Humidity;BMP_temperature;BMP_pressure;BME280_temperature;BME280_humidity;BME280_pressure;Samples;Min_cycle;Max_cycle;Signal;HPM_P1;HPM_P2
2022/12/05 00:00:00;;;;;;;36.25;17.35;;;;;;;2.10;100.00;101579.59;5080163;28;20040;-86
2022/12/05 00:02:28;;;;;;;44.08;17.15;;;;;;;2.12;100.00;101582.94;5045843;28;20116;-86
2022/12/05 00:04:54;;;;;;;43.53;17.35;;;;;;;2.12;100.00;101579.44;5062471;28;20040;-85
2022/12/05 00:07:19;;;;;;;46.97;18.33;;;;;;;2.13;100.00;101581.97;5045738;28;20034;-86
2022/12/05 00:09:44;;;;;;;45.93;18.13;;;;;;;2.14;100.00;101586.34;5045407;28;20038;-86
2022/12/05 00:12:12;;;;;;;42.63;18.30;;;;;;;2.14;100.00;101582.81;5062694;28;20114;-85
2022/12/05 00:14:37;;;;;;;46.20;18.00;;;;;;;2.18;100.00;101584.22;5078562;28;20069;-86
2022/12/05 00:17:03;;;;;;;45.10;19.40;;;;;;;2.19;100.00;101588.59;5062154;28;20035;-85
2022/12/05 00:19:28;;;;;;;43.93;17.93;;;;;;;2.21;100.00;101589.28;5062226;28;20040;-86
2022/12/05 00:21:56;;;;;;;48.42;20.08;;;;;;;2.16;100.00;101587.03;5078736;28;20111;-85
2022/12/05 00:24:22;;;;;;;45.07;17.83;;;;;;;2.16;100.00;101592.41;5062330;28;20457;-85
2022/12/05 00:26:47;;;;;;;47.40;19.52;;;;;;;2.16;100.00;101589.72;5078444;28;20059;-85
2022/12/05 00:29:13;;;;;;;44.23;18.93;;;;;;;2.14;100.00;101597.06;5078636;28;20036;-85
2022/12/05 00:31:39;;;;;;;42.72;19.23;;;;;;;2.13;100.00;101589.16;5062797;28;20165;-86
2022/12/05 00:34:04;;;;;;;42.90;19.10;;;;;;;2.17;100.00;101579.84;5078889;28;20035;-86
2022/12/05 00:36:33;;;;;;;47.30;20.10;;;;;;;2.16;100.00;101581.69;5045081;28;20032;-86
2022/12/05 00:39:01;;;;;;;47.30;19.05;;;;;;;2.17;100.00;101583.38;5096638;28;20035;-85
2022/12/05 00:41:27;;;;;;;43.38;19.23;;;;;;;2.19;100.00;101581.41;5079234;28;20028;-86
2022/12/05 00:43:54;;;;;;;41.10;18.80;;;;;;;2.21;100.00;101578.59;5078299;28;20495;-86
2022/12/05 00:46:22;;;;;;;44.30;19.35;;;;;;;2.22;100.00;101574.94;5078337;28;20451;-86
2022/12/05 00:48:48;;;;;;;46.47;19.97;;;;;;;2.25;100.00;101580.00;5078579;28;20119;-86
2022/12/05 00:51:19;;;;;;;47.65;20.13;;;;;;;2.26;100.00;101577.16;5078488;28;20067;-86
2022/12/05 00:53:46;;;;;;;44.75;20.15;;;;;;;2.26;100.00;101568.31;5096150;28;20165;-86
2022/12/05 00:56:14;;;;;;;46.38;19.50;;;;;;;2.27;100.00;101578.88;5078213;28;20127;-85
2022/12/05 00:58:40;;;;;;;46.53;19.60;;;;;;;2.30;100.00;101576.88;5077416;28;20028;-86
2022/12/05 01:01:12;;;;;;;44.80;19.13;;;;;;;2.28;100.00;101572.50;5061785;28;20032;-85
2022/12/05 01:03:38;;;;;;;46.95;20.17;;;;;;;2.27;100.00;101576.19;5078012;28;20056;-86
2022/12/05 01:06:05;;;;;;;48.83;20.33;;;;;;;2.29;100.00;101581.41;5061108;28;20483;-85
2022/12/05 01:08:31;;;;;;;48.47;19.73;;;;;;;2.28;100.00;101582.38;5077702;28;20028;-85
2022/12/05 01:10:57;;;;;;;47.40;20.27;;;;;;;2.26;100.00;101581.69;5077831;28;20024;-85
2022/12/05 01:13:24;;;;;;;46.05;20.05;;;;;;;2.29;100.00;101589.44;5078162;28;20066;-85
2022/12/05 01:15:50;;;;;;;49.45;20.27;;;;;;;2.26;100.00;101585.19;5061545;28;20484;-85
2022/12/05 01:18:17;;;;;;;48.45;21.20;;;;;;;2.26;100.00;101589.72;5077677;28;20035;-85
2022/12/05 01:20:42;;;;;;;43.00;19.63;;;;;;;2.28;100.00;101595.78;5077379;28;20369;-86
2022/12/05 01:23:11;;;;;;;52.08;20.35;;;;;;;2.28;100.00;101599.28;5077591;28;20024;-86
2022/12/05 01:25:43;;;;;;;51.75;21.05;;;;;;;2.29;100.00;101594.78;5077722;28;20036;-86
2022/12/05 01:28:12;;;;;;;45.70;19.77;;;;;;;2.30;100.00;101591.09;5077301;28;20036;-85
2022/12/05 01:30:39;;;;;;;53.28;20.50;;;;;;;2.32;100.00;101590.97;5060744;28;20070;-86
2022/12/05 01:33:05;;;;;;;47.95;20.42;;;;;;;2.32;100.00;101599.88;5077457;28;20476;-85
2022/12/05 01:35:32;;;;;;;48.30;21.35;;;;;;;2.31;100.00;101600.00;5077115;28;20032;-86
2022/12/05 01:37:57;;;;;;;50.40;21.42;;;;;;;2.28;100.00;101599.28;5060716;28;20036;-85
2022/12/05 01:40:23;;;;;;;43.67;19.87;;;;;;;2.31;100.00;101600.84;5044082;28;20036;-86
2022/12/05 01:42:49;;;;;;;47.45;20.63;;;;;;;2.34;100.00;101605.06;5061221;28;20468;-85
2022/12/05 01:45:17;;;;;;;47.33;20.23;;;;;;;2.36;100.00;101603.09;5060262;28;20554;-85
2022/12/05 01:47:44;;;;;;;45.60;20.02;;;;;;;2.34;100.00;101613.09;5095208;28;20108;-86
2022/12/05 01:50:11;;;;;;;45.97;19.47;;;;;;;2.33;100.00;101609.56;5077071;28;20027;-86
2022/12/05 01:52:37;;;;;;;48.47;20.85;;;;;;;2.34;100.00;101616.63;5076996;28;20122;-86
2022/12/05 01:55:10;;;;;;;45.80;19.55;;;;;;;2.35;100.00;101614.78;5061037;28;20516;-86
2022/12/05 01:57:36;;;;;;;44.17;19.85;;;;;;;2.33;100.00;101617.59;5076658;28;20036;-86
2022/12/05 02:00:28;;;;;;;45.70;20.02;;;;;;;2.35;100.00;101617.47;5076903;28;20089;-86
2022/12/05 02:03:01;;;;;;;46.57;19.40;;;;;;;2.33;100.00;101614.91;5072859;28;20044;-85
2022/12/05 02:05:33;;;;;;;47.50;20.15;;;;;;;2.35;100.00;101623.69;5076760;28;20024;-86
2022/12/05 02:08:02;;;;;;;42.55;19.55;;;;;;;2.36;100.00;101620.03;5076688;28;20035;-85
2022/12/05 02:10:32;;;;;;;51.33;20.23;;;;;;;2.34;100.00;101618.47;5076390;28;20036;-86
2022/12/05 02:13:21;;;;;;;41.33;19.20;;;;;;;2.32;100.00;101629.31;5076917;28;20028;-85
2022/12/05 02:16:02;;;;;;;47.23;20.13;;;;;;;2.36;100.00;101622.69;5076711;28;20412;-86
2022/12/05 02:18:30;;;;;;;44.55;18.95;;;;;;;2.37;100.00;101628.88;5076802;28;20024;-85
2022/12/05 02:21:27;;;;;;;47.67;19.67;;;;;;;2.36;100.00;101617.34;5076456;28;20032;-85
2022/12/05 02:24:11;;;;;;;47.50;19.35;;;;;;;2.39;100.00;101619.72;5075976;28;20051;-86
2022/12/05 02:27:13;;;;;;;46.85;19.42;;;;;;;2.42;100.00;101618.59;5094897;28;20456;-86
2022/12/05 02:29:55;;;;;;;48.33;19.93;;;;;;;2.39;100.00;101617.06;5076635;28;20028;-86
2022/12/05 02:32:51;;;;;;;50.58;20.20;;;;;;;2.40;100.00;101625.94;5094267;28;20034;-86
2022/12/05 02:35:38;;;;;;;46.35;20.38;;;;;;;2.42;100.00;101605.19;5094685;28;20044;-85
2022/12/05 02:38:18;;;;;;;44.55;18.92;;;;;;;2.45;100.00;101618.28;5076169;28;20111;-85
2022/12/05 02:41:14;;;;;;;45.75;19.55;;;;;;;2.46;100.00;101610.09;5076216;28;20028;-86
2022/12/05 02:43:46;;;;;;;42.10;19.13;;;;;;;2.45;100.00;101610.25;5094602;28;20028;-86
2022/12/05 02:46:18;;;;;;;48.65;18.90;;;;;;;2.41;100.00;101609.72;5076445;28;20036;-86
2022/12/05 02:48:46;;;;;;;55.70;20.17;;;;;;;2.42;100.00;101611.41;5076341;28;20097;-85
2022/12/05 02:51:16;;;;;;;47.33;19.52;;;;;;;2.42;100.00;101614.09;5076608;28;20036;-86
2022/12/05 02:53:43;;;;;;;43.97;21.15;;;;;;;2.45;100.00;101615.63;5075967;28;20040;-86
2022/12/05 02:56:09;;;;;;;48.20;20.67;;;;;;;2.43;100.00;101613.06;5075932;28;20093;-86
2022/12/05 02:58:41;;;;;;;47.83;21.55;;;;;;;2.42;100.00;101613.22;5075826;28;20028;-86
2022/12/05 03:01:08;;;;;;;43.95;20.00;;;;;;;2.42;100.00;101615.91;5076195;28;20490;-85
2022/12/05 03:03:34;;;;;;;48.38;21.00;;;;;;;2.42;100.00;101619.44;5075823;28;20028;-85
2022/12/05 03:06:06;;;;;;;44.92;19.55;;;;;;;2.42;100.00;101616.75;5059212;28;20036;-86
2022/12/05 03:08:52;;;;;;;44.40;19.37;;;;;;;2.41;100.00;101619.59;5076627;28;20445;-85
2022/12/05 03:11:18;;;;;;;46.28;19.00;;;;;;;2.43;100.00;101613.06;5076191;28;20024;-86
2022/12/05 03:13:56;;;;;;;52.00;20.95;;;;;;;2.43;100.00;101622.97;5076290;28;20046;-86
2022/12/05 03:16:28;;;;;;;44.67;19.17;;;;;;;2.44;100.00;101620.13;5075769;28;20039;-85
2022/12/05 03:18:57;;;;;;;46.28;19.50;;;;;;;2.43;100.00;101610.41;5075418;28;20055;-86
2022/12/05 03:21:29;;;;;;;50.90;20.77;;;;;;;2.44;100.00;101620.13;5075807;28;20042;-85
2022/12/05 03:24:08;;;;;;;48.78;20.98;;;;;;;2.45;100.00;101613.81;5075743;28;20039;-85
2022/12/05 03:26:49;;;;;;;42.63;19.38;;;;;;;2.44;100.00;101617.47;5075954;28;20036;-85
2022/12/05 03:29:45;;;;;;;45.20;19.77;;;;;;;2.45;100.00;101611.13;5075761;28;20032;-86
2022/12/05 03:32:30;;;;;;;50.05;19.98;;;;;;;2.45;100.00;101608.44;5075317;28;20111;-86
2022/12/05 03:34:59;;;;;;;47.08;19.30;;;;;;;2.46;100.00;101610.09;5075592;28;20074;-86
2022/12/05 03:37:44;;;;;;;46.60;20.10;;;;;;;2.46;100.00;101609.28;5075394;28;20039;-85
2022/12/05 03:40:25;;;;;;;47.70;19.60;;;;;;;2.50;100.00;101621.41;5075518;28;20185;-86
2022/12/05 03:43:10;;;;;;;46.93;18.93;;;;;;;2.50;100.00;101613.38;5076392;28;20071;-86
2022/12/05 03:45:43;;;;;;;40.78;18.55;;;;;;;2.47;100.00;101610.97;5075091;28;20020;-86
2022/12/05 03:48:33;;;;;;;47.20;19.52;;;;;;;2.50;100.00;101608.00;5075697;28;20028;-86
2022/12/05 03:51:02;;;;;;;45.22;19.85;;;;;;;2.52;100.00;101611.38;5075984;28;20028;-85
2022/12/05 03:53:57;;;;;;;47.83;19.83;;;;;;;2.53;100.00;101609.56;5093437;28;20084;-85
2022/12/05 03:56:30;;;;;;;49.97;20.03;;;;;;;2.54;100.00;101605.88;5075177;28;20384;-86
2022/12/05 03:59:06;;;;;;;56.13;20.90;;;;;;;2.55;100.00;101613.75;5091824;28;20040;-86
2022/12/05 04:01:34;;;;;;;45.50;18.77;;;;;;;2.57;100.00;101610.94;5075671;28;20468;-85
2022/12/05 04:04:09;;;;;;;47.75;20.50;;;;;;;2.55;100.00;101619.13;5075253;28;20460;-85
2022/12/05 04:06:38;;;;;;;47.08;18.50;;;;;;;2.54;100.00;101619.25;5075555;28;20074;-85
2022/12/05 04:09:09;;;;;;;43.37;18.60;;;;;;;2.54;100.00;101621.94;5093641;28;20032;-86
2022/12/05 04:11:42;;;;;;;49.47;19.90;;;;;;;2.56;100.00;101622.66;5075203;28;20126;-86
2022/12/05 04:14:17;;;;;;;47.05;19.38;;;;;;;2.57;100.00;101625.19;5075785;28;20020;-86
2022/12/05 04:17:05;;;;;;;46.88;19.00;;;;;;;2.58;100.00;101618.00;5092984;28;20051;-86
2022/12/05 04:22:28;;;;;;;43.90;18.33;;;;;;;2.55;100.00;101624.47;5093777;28;20373;-85
2022/12/05 04:27:58;;;;;;;45.45;18.67;;;;;;;2.56;100.00;101628.84;5093812;28;20442;-86
2022/12/05 04:30:26;;;;;;;47.17;20.00;;;;;;;2.54;100.00;101621.94;5075035;28;20111;-86
2022/12/05 04:33:03;;;;;;;47.78;19.10;;;;;;;2.57;100.00;101630.56;5075007;28;20028;-86
2022/12/05 04:35:40;;;;;;;42.47;18.80;;;;;;;2.57;100.00;101630.56;5078613;28;20027;-86
2022/12/05 04:38:12;;;;;;;44.42;20.02;;;;;;;2.60;100.00;101630.28;5078471;28;20032;-86
2022/12/05 04:40:47;;;;;;;40.28;18.58;;;;;;;2.61;100.00;101631.09;5079367;28;20051;-86
2022/12/05 04:43:15;;;;;;;48.10;20.08;;;;;;;2.59;100.00;101635.78;5078430;28;20028;-86
2022/12/05 04:45:43;;;;;;;42.92;18.15;;;;;;;2.59;100.00;101633.94;5096611;28;20127;-86
2022/12/05 04:48:14;;;;;;;46.93;19.63;;;;;;;2.62;100.00;101630.13;5078404;28;20039;-86
2022/12/05 04:50:44;;;;;;;42.08;18.40;;;;;;;2.62;100.00;101635.47;5078193;28;20111;-86
2022/12/05 04:53:10;;;;;;;45.03;19.67;;;;;;;2.63;100.00;101637.19;5078106;28;20085;-86
2022/12/05 04:55:41;;;;;;;40.78;19.35;;;;;;;2.66;100.00;101630.66;5096296;28;20046;-86
2022/12/05 04:58:20;;;;;;;41.75;18.55;;;;;;;2.65;100.00;101629.84;5078178;28;20062;-86
2022/12/05 05:00:56;;;;;;;42.73;18.87;;;;;;;2.67;100.00;101632.38;5078444;28;20031;-86
2022/12/05 05:03:37;;;;;;;41.55;18.23;;;;;;;2.67;100.00;101643.09;5078248;28;20035;-86
2022/12/05 05:06:03;;;;;;;44.17;19.17;;;;;;;2.65;100.00;101627.16;5078314;28;20028;-86
2022/12/05 05:08:29;;;;;;;45.80;19.05;;;;;;;2.63;100.00;101629.16;5061344;28;20097;-85
2022/12/05 05:11:00;;;;;;;42.10;19.00;;;;;;;2.63;100.00;101639.88;5077914;28;20036;-86
2022/12/05 05:13:26;;;;;;;44.80;19.02;;;;;;;2.60;100.00;101632.13;5096291;28;20024;-85
2022/12/05 05:15:51;;;;;;;45.90;20.27;;;;;;;2.60;100.00;101638.31;5077785;28;20030;-85
2022/12/05 05:18:16;;;;;;;43.03;18.50;;;;;;;2.59;100.00;101636.59;5077970;28;20084;-86
2022/12/05 05:20:42;;;;;;;41.57;17.83;;;;;;;2.61;100.00;101644.50;5077727;28;20040;-85
2022/12/05 05:23:07;;;;;;;48.00;19.13;;;;;;;2.62;100.00;101646.19;5077735;28;20032;-85
2022/12/05 05:25:35;;;;;;;41.07;18.30;;;;;;;2.66;100.00;101649.41;5061280;28;20024;-85
2022/12/05 05:28:00;;;;;;;44.28;19.15;;;;;;;2.64;100.00;101646.88;5060843;28;20060;-85
2022/12/05 05:30:26;;;;;;;45.23;19.17;;;;;;;2.63;100.00;101654.09;5044343;28;20119;-85
2022/12/05 05:32:52;;;;;;;44.53;19.13;;;;;;;2.62;100.00;101649.72;5077222;28;20100;-86
2022/12/05 05:35:17;;;;;;;45.03;19.97;;;;;;;2.65;100.00;101645.06;5077480;28;20032;-85
2022/12/05 05:37:43;;;;;;;47.08;19.13;;;;;;;2.66;100.00;101642.25;5077608;28;20472;-85
2022/12/05 05:40:11;;;;;;;42.97;18.47;;;;;;;2.67;100.00;101649.28;5043869;28;20377;-85
2022/12/05 05:42:42;;;;;;;41.72;19.55;;;;;;;2.71;100.00;101647.16;5076845;28;20024;-86
2022/12/05 05:45:09;;;;;;;46.42;19.45;;;;;;;2.73;100.00;101642.50;5076935;28;20027;-85
2022/12/05 05:47:34;;;;;;;39.75;17.92;;;;;;;2.72;100.00;101643.50;5060286;28;20506;-86
2022/12/05 05:50:02;;;;;;;42.10;18.63;;;;;;;2.71;100.00;101645.31;5060375;28;20068;-86
2022/12/05 05:52:27;;;;;;;44.42;18.35;;;;;;;2.74;100.00;101644.19;5060763;28;20058;-85
2022/12/05 05:54:56;;;;;;;42.07;17.90;;;;;;;2.75;100.00;101645.91;5076931;28;20535;-86
2022/12/05 05:57:21;;;;;;;36.17;17.50;;;;;;;2.74;100.00;101650.41;5076581;28;20047;-86
2022/12/05 05:59:47;;;;;;;41.75;18.17;;;;;;;2.74;100.00;101652.25;5076885;28;20039;-86
2022/12/05 06:02:15;;;;;;;40.33;17.00;;;;;;;2.73;100.00;101648.72;5060254;28;20036;-86
2022/12/05 06:04:45;;;;;;;40.00;16.80;;;;;;;2.72;100.00;101654.22;5094605;28;20054;-86
2022/12/05 06:07:10;;;;;;;39.03;18.17;;;;;;;2.72;100.00;101654.22;5076419;28;20020;-86
2022/12/05 06:09:36;;;;;;;38.13;17.27;;;;;;;2.72;100.00;101665.78;5060160;28;20039;-86
2022/12/05 06:12:01;;;;;;;38.22;17.40;;;;;;;2.74;100.00;101669.16;5060766;28;20046;-86
2022/12/05 06:14:29;;;;;;;47.40;18.13;;;;;;;2.71;100.00;101658.72;5076500;28;20051;-86
2022/12/05 06:16:55;;;;;;;39.22;17.20;;;;;;;2.73;100.00;101667.50;5076473;28;20036;-87
2022/12/05 06:19:20;;;;;;;39.10;16.90;;;;;;;2.75;100.00;101667.34;5076945;28;20032;-86
2022/12/05 06:21:49;;;;;;;39.13;18.53;;;;;;;2.75;100.00;101668.19;5076453;28;20471;-86
2022/12/05 06:24:15;;;;;;;38.55;17.70;;;;;;;2.78;100.00;101661.69;5059510;28;20032;-86
2022/12/05 06:26:41;;;;;;;43.28;19.13;;;;;;;2.79;100.00;101666.91;5094317;28;20028;-84
2022/12/05 06:29:06;;;;;;;37.67;17.07;;;;;;;2.78;100.00;101670.56;5076624;28;20392;-84
2022/12/05 06:31:32;;;;;;;38.63;17.02;;;;;;;2.77;100.00;101663.50;5043885;28;20040;-85
2022/12/05 06:34:02;;;;;;;37.83;17.23;;;;;;;2.78;100.00;101664.38;5075929;28;20031;-83
2022/12/05 06:36:29;;;;;;;37.88;17.48;;;;;;;2.81;100.00;101672.13;5076222;28;20609;-84
2022/12/05 06:38:56;;;;;;;40.95;16.67;;;;;;;2.83;100.00;101663.94;5075966;28;20397;-85
2022/12/05 06:41:23;;;;;;;38.65;17.23;;;;;;;2.85;100.00;101665.50;5094408;28;20032;-84
2022/12/05 06:43:52;;;;;;;43.13;18.00;;;;;;;2.85;100.00;101668.16;5059605;28;20131;-83
2022/12/05 06:46:17;;;;;;;38.23;17.07;;;;;;;2.81;100.00;101664.91;5076136;28;20032;-85
2022/12/05 06:48:43;;;;;;;39.85;16.77;;;;;;;2.85;100.00;101673.53;5076022;28;20371;-83
2022/12/05 06:51:11;;;;;;;33.60;16.17;;;;;;;2.87;100.00;101668.84;5076040;28;20149;-84
2022/12/05 06:53:37;;;;;;;38.80;16.13;;;;;;;2.88;100.00;101673.25;5075329;28;20054;-83
2022/12/05 06:56:06;;;;;;;38.55;17.92;;;;;;;2.85;100.00;101673.53;5059348;28;20055;-84
2022/12/05 06:58:31;;;;;;;38.60;16.20;;;;;;;2.86;100.00;101669.00;5071801;28;20083;-85
2022/12/05 07:03:42;;;;;;;36.67;15.77;;;;;;;2.90;100.00;101678.44;5058556;28;20090;-84
2022/12/05 07:06:08;;;;;;;36.63;16.15;;;;;;;2.92;100.00;101682.69;5056214;28;20036;-84
2022/12/05 07:08:34;;;;;;;34.47;15.98;;;;;;;2.96;100.00;101683.22;5073414;28;20164;-84
2022/12/05 07:11:01;;;;;;;33.55;15.63;;;;;;;2.98;100.00;101691.97;5072005;28;20146;-84
2022/12/05 07:13:26;;;;;;;34.55;15.95;;;;;;;2.99;100.00;101689.13;5072086;28;20111;-84
2022/12/05 07:15:52;;;;;;;30.17;15.30;;;;;;;3.01;100.00;101689.00;5055290;28;20395;-84
2022/12/05 07:18:17;;;;;;;32.73;15.13;;;;;;;3.02;100.00;101698.72;5071721;28;20028;-84
2022/12/05 07:20:44;;;;;;;33.13;15.93;;;;;;;3.04;100.00;101698.59;5055502;28;20085;-83
2022/12/05 07:23:10;;;;;;;33.15;15.43;;;;;;;3.06;100.00;101702.00;5071934;28;20048;-85
2022/12/05 07:25:42;;;;;;;38.28;16.40;;;;;;;3.07;100.00;101706.34;5071678;28;20043;-85
2022/12/05 07:28:07;;;;;;;29.65;15.75;;;;;;;3.07;100.00;101711.69;5072289;28;20021;-84
2022/12/05 07:30:33;;;;;;;32.87;14.73;;;;;;;3.07;100.00;101714.38;5073901;28;20117;-84
2022/12/05 07:33:02;;;;;;;31.27;14.75;;;;;;;3.06;100.00;101710.03;5072164;28;20029;-84
2022/12/05 07:35:28;;;;;;;32.47;15.25;;;;;;;3.05;100.00;101716.38;5055456;28;20028;-84
2022/12/05 07:37:54;;;;;;;29.92;15.55;;;;;;;3.04;100.00;101718.22;5055391;28;20522;-85
2022/12/05 07:40:19;;;;;;;32.83;15.67;;;;;;;3.06;100.00;101713.53;5072637;28;20036;-85
2022/12/05 07:42:47;;;;;;;35.10;15.05;;;;;;;3.07;100.00;101709.88;5038598;28;20302;-84
2022/12/05 07:45:13;;;;;;;31.02;14.95;;;;;;;3.08;100.00;101710.72;5071567;28;20447;-84
2022/12/05 07:47:38;;;;;;;30.30;14.40;;;;;;;3.08;100.00;101708.03;5072305;28;20043;-84
2022/12/05 07:50:04;;;;;;;29.87;15.03;;;;;;;3.08;100.00;101716.91;5054726;28;20401;-84
2022/12/05 07:52:30;;;;;;;37.03;15.60;;;;;;;3.08;100.00;101721.44;5054678;28;20090;-84
2022/12/05 07:54:55;;;;;;;32.37;14.90;;;;;;;3.07;100.00;101719.75;5038056;28;20123;-84
2022/12/05 07:57:21;;;;;;;32.37;14.83;;;;;;;3.09;100.00;101723.97;5037688;28;20496;-83
2022/12/05 07:59:49;;;;;;;27.10;13.73;;;;;;;3.11;100.00;101724.66;5055223;28;20044;-85
2022/12/05 08:02:14;;;;;;;32.78;14.68;;;;;;;3.10;100.00;101728.38;5054716;28;20079;-84
2022/12/05 08:04:39;;;;;;;33.30;14.57;;;;;;;3.12;100.00;101729.06;5071685;28;20094;-84
2022/12/05 08:07:05;;;;;;;29.75;14.55;;;;;;;3.12;100.00;101721.00;5055068;28;20033;-84
2022/12/05 08:09:30;;;;;;;36.17;15.03;;;;;;;3.11;100.00;101727.34;5057195;28;20028;-83
2022/12/05 08:11:56;;;;;;;34.40;15.23;;;;;;;3.15;100.00;101734.13;5058682;28;20031;-84
2022/12/05 08:14:21;;;;;;;28.87;14.47;;;;;;;3.17;100.00;101731.28;5042297;28;20123;-84
2022/12/05 08:16:47;;;;;;;32.92;15.40;;;;;;;3.19;100.00;101744.56;5058772;28;20471;-83
2022/12/05 08:19:12;;;;;;;29.35;14.73;;;;;;;3.18;100.00;101743.72;5075525;28;20039;-84
2022/12/05 08:21:38;;;;;;;29.63;14.43;;;;;;;3.18;100.00;101746.41;5075607;28;20081;-84
2022/12/05 08:24:06;;;;;;;31.25;14.82;;;;;;;3.22;100.00;101744.25;5058830;28;20082;-84
2022/12/05 08:26:35;;;;;;;29.63;14.18;;;;;;;3.22;100.00;101742.44;5075962;28;20037;-85
2022/12/05 08:29:09;;;;;;;32.83;14.82;;;;;;;3.23;100.00;101756.69;5075242;28;20036;-84
2022/12/05 08:31:39;;;;;;;32.53;15.32;;;;;;;3.23;100.00;101762.06;5075489;28;20037;-83
2022/12/05 08:34:10;;;;;;;36.92;15.18;;;;;;;3.23;100.00;101754.00;5075816;28;20036;-84
2022/12/05 08:36:35;;;;;;;31.80;15.55;;;;;;;3.26;100.00;101759.09;5074809;28;20131;-84
2022/12/05 08:39:04;;;;;;;32.97;15.83;;;;;;;3.25;100.00;101754.69;5058234;28;20119;-84
2022/12/05 08:41:30;;;;;;;31.30;14.32;;;;;;;3.32;100.00;101763.84;5075037;28;20024;-84
2022/12/05 08:43:58;;;;;;;30.37;14.07;;;;;;;3.30;100.00;101758.66;5074870;28;20040;-84
2022/12/05 08:46:23;;;;;;;30.15;14.45;;;;;;;3.32;100.00;101763.84;5074976;28;20123;-84
2022/12/05 08:48:50;;;;;;;31.23;15.50;;;;;;;3.32;100.00;101748.63;5058198;28;20123;-84
2022/12/05 08:51:15;;;;;;;33.80;14.17;;;;;;;3.36;100.00;101753.69;5074670;28;20032;-83
2022/12/05 08:53:41;;;;;;;33.67;15.20;;;;;;;3.37;100.00;101756.25;5074693;28;20101;-84
2022/12/05 08:56:08;;;;;;;30.97;15.03;;;;;;;3.39;100.00;101754.25;5058595;28;20033;-84
2022/12/05 08:58:36;;;;;;;28.98;14.23;;;;;;;3.41;100.00;101770.19;5074174;28;20480;-85
2022/12/05 09:01:05;;;;;;;31.80;14.95;;;;;;;3.40;100.00;101764.00;5058610;28;20036;-84
2022/12/05 09:03:31;;;;;;;31.60;14.97;;;;;;;3.41;100.00;101772.88;5057685;28;20036;-84
2022/12/05 09:06:19;;;;;;;30.52;15.50;;;;;;;3.39;100.00;101774.88;5074597;28;20029;-85
2022/12/05 09:08:45;;;;;;;28.40;14.03;;;;;;;3.34;100.00;101773.47;5074899;28;20377;-85
2022/12/05 09:11:16;;;;;;;31.55;15.20;;;;;;;3.38;100.00;101770.50;5075545;28;20028;-84
2022/12/05 09:13:43;;;;;;;30.92;14.30;;;;;;;3.37;100.00;101777.69;5075212;28;20024;-84
2022/12/05 09:16:33;;;;;;;33.35;14.85;;;;;;;3.41;100.00;101781.78;5057831;28;20063;-84
2022/12/05 09:18:59;;;;;;;29.85;13.95;;;;;;;3.43;100.00;101779.78;5075170;28;20041;-84
2022/12/05 09:21:27;;;;;;;28.77;14.80;;;;;;;3.46;100.00;101792.91;5056956;28;20032;-84
2022/12/05 09:23:53;;;;;;;29.00;15.07;;;;;;;3.51;100.00;101787.09;5073686;28;20033;-85
2022/12/05 09:26:22;;;;;;;29.17;14.00;;;;;;;3.52;100.00;101791.50;5074192;28;20085;-84
2022/12/05 09:28:48;;;;;;;30.50;14.50;;;;;;;3.53;100.00;101795.00;5074123;28;20091;-84
2022/12/05 09:31:23;;;;;;;30.98;14.52;;;;;;;3.58;100.00;101795.44;5073735;28;20027;-84
2022/12/05 09:33:49;;;;;;;28.17;14.20;;;;;;;3.63;100.00;101796.69;5074122;28;20111;-84
2022/12/05 09:36:21;;;;;;;29.58;13.38;;;;;;;3.69;100.00;101803.28;5076108;28;20038;-84
2022/12/05 09:38:48;;;;;;;29.92;14.35;;;;;;;3.74;100.00;101802.88;5074760;28;20141;-84
2022/12/05 09:42:06;;;;;;;30.23;14.68;;;;;;;3.78;100.00;101802.44;5075491;28;20029;-85
2022/12/05 09:44:59;;;;;;;31.08;14.57;;;;;;;3.82;100.00;101806.53;5074008;28;20040;-85
2022/12/05 09:48:02;;;;;;;27.52;13.75;;;;;;;3.84;100.00;101809.06;5073618;28;20071;-84
2022/12/05 09:50:31;;;;;;;28.13;13.27;;;;;;;3.80;100.00;101810.34;5074976;28;20460;-85
2022/12/05 09:53:32;;;;;;;28.20;13.57;;;;;;;3.77;100.00;101807.94;5074911;28;20090;-84
2022/12/05 09:56:05;;;;;;;27.15;13.05;;;;;;;3.73;100.00;101810.06;5073568;28;20024;-83
2022/12/05 09:58:48;;;;;;;25.65;13.40;;;;;;;3.73;100.00;101812.75;5089837;28;20051;-83
2022/12/05 10:01:24;;;;;;;27.67;13.82;;;;;;;3.76;100.00;101811.63;5095105;28;20069;-83
2022/12/05 10:04:27;;;;;;;27.67;13.48;;;;;;;3.78;100.00;101804.25;5095077;28;20038;-83
2022/12/05 10:07:08;;;;;;;24.45;12.52;;;;;;;3.76;100.00;101808.94;5077361;28;20455;-83
2022/12/05 10:09:41;;;;;;;24.70;11.13;;;;;;;3.74;100.00;101810.94;5077228;28;20040;-83
2022/12/05 10:12:15;;;;;;;22.20;11.75;;;;;;;3.76;100.00;101812.44;5094966;28;20035;-85
2022/12/05 10:15:01;;;;;;;23.70;11.98;;;;;;;3.82;100.00;101800.28;5094783;28;20073;-85
2022/12/05 10:17:50;;;;;;;23.25;11.32;;;;;;;3.86;100.00;101805.22;5076238;28;20077;-84
2022/12/05 10:20:24;;;;;;;21.30;11.57;;;;;;;3.90;100.00;101803.09;5061936;28;20039;-85
2022/12/05 10:23:02;;;;;;;25.88;12.75;;;;;;;3.97;100.00;101803.31;5077361;28;20054;-85
2022/12/05 10:25:31;;;;;;;20.17;10.75;;;;;;;3.98;100.00;101808.53;5077147;28;20397;-84
2022/12/05 10:28:00;;;;;;;20.10;10.63;;;;;;;4.01;100.00;101808.25;5076328;28;20028;-83
2022/12/05 10:30:32;;;;;;;20.48;10.07;;;;;;;4.04;100.00;101799.06;5077130;28;20058;-83
2022/12/05 10:32:58;;;;;;;19.95;10.15;;;;;;;4.06;100.00;101809.66;5076252;28;20085;-83
2022/12/05 10:35:32;;;;;;;19.98;9.98;;;;;;;4.08;100.00;101811.19;5076319;28;20020;-83
2022/12/05 10:38:02;;;;;;;18.27;10.38;;;;;;;4.06;100.00;101810.50;5094387;28;20077;-83
2022/12/05 10:40:50;;;;;;;19.55;9.82;;;;;;;4.07;100.00;101811.34;5076419;28;20119;-83
2022/12/05 10:43:25;;;;;;;17.25;9.98;;;;;;;4.08;100.00;101808.50;5076930;28;20452;-83
2022/12/05 10:45:51;;;;;;;17.35;9.32;;;;;;;4.12;100.00;101803.66;5094216;28;20027;-83
2022/12/05 10:48:19;;;;;;;18.10;9.32;;;;;;;4.12;100.00;101800.97;5076191;28;20028;-83
2022/12/05 10:50:47;;;;;;;18.80;9.43;;;;;;;4.14;100.00;101812.44;5075694;28;20035;-83
2022/12/05 10:53:22;;;;;;;18.05;9.60;;;;;;;4.11;100.00;101807.38;5076032;28;20020;-84
2022/12/05 10:55:49;;;;;;;18.48;8.98;;;;;;;4.11;100.00;101807.38;5076070;28;20027;-85
2022/12/05 10:58:23;;;;;;;16.43;9.50;;;;;;;4.12;100.00;101809.03;5058519;28;20060;-83
2022/12/05 11:01:10;;;;;;;19.23;9.75;;;;;;;4.10;100.00;101811.88;5094186;28;20503;-83
2022/12/05 11:03:41;;;;;;;17.90;9.65;;;;;;;4.09;100.00;101812.03;5074819;28;20044;-83
2022/12/05 11:06:22;;;;;;;17.75;9.90;;;;;;;4.11;100.00;101805.53;5076332;28;20338;-83
2022/12/05 11:09:01;;;;;;;18.08;9.82;;;;;;;4.12;100.00;101806.34;5076458;28;20036;-83
2022/12/05 11:11:31;;;;;;;18.13;9.77;;;;;;;4.13;100.00;101797.31;5093807;28;20089;-84
2022/12/05 11:14:17;;;;;;;15.85;8.60;;;;;;;4.17;100.00;101796.88;5075775;28;20085;-83
2022/12/05 11:16:51;;;;;;;16.10;8.68;;;;;;;4.27;100.00;101796.81;5075895;28;20028;-84
2022/12/05 11:19:33;;;;;;;19.30;9.25;;;;;;;4.39;100.00;101800.13;5093543;28;20480;-83
2022/12/05 11:21:59;;;;;;;16.95;9.20;;;;;;;4.42;100.00;101796.31;5075270;28;20115;-84
2022/12/05 11:24:29;;;;;;;15.33;8.67;;;;;;;4.47;100.00;101794.00;5093689;28;20115;-83
2022/12/05 11:26:56;;;;;;;15.57;9.27;;;;;;;4.47;100.00;101788.63;5076040;28;20028;-83
2022/12/05 11:29:30;;;;;;;16.98;9.75;;;;;;;4.51;100.00;101795.38;5058845;28;20119;-84
2022/12/05 11:31:55;;;;;;;15.18;8.25;;;;;;;4.55;100.00;101797.63;5075593;28;20028;-84
2022/12/05 11:34:26;;;;;;;19.47;9.37;;;;;;;4.56;100.00;101799.31;5075580;28;20388;-84